createdAt,value
2018-02-09T00:00:51.076Z,-3.99
2018-02-09T00:01:51.672Z,-4.01
2018-02-09T00:02:52.265Z,-3.98
2018-02-09T00:03:52.863Z,-3.88
2018-02-09T00:04:53.466Z,-3.81
2018-02-09T00:05:54.046Z,-3.81
2018-02-09T00:06:54.641Z,-3.80
2018-02-09T00:07:55.235Z,-3.80
2018-02-09T00:08:55.821Z,-3.81
2018-02-09T00:09:56.415Z,-3.61
2018-02-09T00:10:57.008Z,-3.63
2018-02-09T00:11:57.606Z,-3.68
2018-02-09T00:12:58.202Z,-3.66
2018-02-09T00:13:58.795Z,-3.58
2018-02-09T00:14:59.392Z,-3.63
2018-02-09T00:15:59.986Z,-3.66
2018-02-09T00:17:00.583Z,-3.62
2018-02-09T00:18:01.178Z,-3.63
2018-02-09T00:19:01.799Z,-3.74
2018-02-09T00:20:02.376Z,-3.80
2018-02-09T00:21:03.028Z,-3.77
2018-02-09T00:22:03.573Z,-3.72
2018-02-09T00:23:04.170Z,-3.81
2018-02-09T00:24:04.759Z,-3.84
2018-02-09T00:25:05.347Z,-3.88
2018-02-09T00:26:05.948Z,-3.80
2018-02-09T00:27:06.545Z,-3.84
2018-02-09T00:28:07.141Z,-3.91
2018-02-09T00:29:07.742Z,-3.87
2018-02-09T00:30:08.334Z,-3.90
2018-02-09T00:31:08.932Z,-3.91
2018-02-09T00:32:09.514Z,-3.92
2018-02-09T00:33:10.109Z,-3.98
2018-02-09T00:34:10.710Z,-4.01
2018-02-09T00:35:11.297Z,-4.03
2018-02-09T00:36:11.896Z,-4.08
2018-02-09T00:37:12.490Z,-3.98
2018-02-09T00:38:13.087Z,-4.05
2018-02-09T00:39:13.680Z,-3.92
2018-02-09T00:40:14.279Z,-4.08
2018-02-09T00:41:14.871Z,-4.05
2018-02-09T00:42:15.460Z,-4.02
2018-02-09T00:43:16.056Z,-3.95
2018-02-09T00:44:16.647Z,-3.98
2018-02-09T00:45:17.251Z,-4.02
2018-02-09T00:46:17.854Z,-4.05
2018-02-09T00:47:18.442Z,-4.03
2018-02-09T00:48:19.039Z,-4.20
2018-02-09T00:49:19.640Z,-4.21
2018-02-09T00:50:20.241Z,-4.10
2018-02-09T00:51:20.841Z,-4.19
2018-02-09T00:52:21.439Z,-4.19
2018-02-09T00:53:22.045Z,-4.23
2018-02-09T00:54:22.640Z,-4.26
2018-02-09T00:55:23.239Z,-4.37
2018-02-09T00:56:23.837Z,-4.35
2018-02-09T00:57:24.431Z,-4.31
2018-02-09T00:58:25.023Z,-4.33
2018-02-09T00:59:25.615Z,-4.29
2018-02-09T01:01:10.424Z,-4.42
2018-02-09T01:02:11.023Z,-4.41
2018-02-09T01:03:11.621Z,-4.42
2018-02-09T01:04:12.208Z,-4.39
2018-02-09T01:05:12.810Z,-4.44
2018-02-09T01:06:13.476Z,-4.39
2018-02-09T01:07:14.048Z,-4.41
2018-02-09T01:08:14.645Z,-4.42
2018-02-09T01:09:15.242Z,-4.42
2018-02-09T01:10:15.862Z,-4.52
2018-02-09T01:11:16.445Z,-4.45
2018-02-09T01:12:17.045Z,-4.42
2018-02-09T01:13:17.641Z,-4.45
2018-02-09T01:14:18.234Z,-4.48
2018-02-09T01:15:18.834Z,-4.45
2018-02-09T01:16:19.430Z,-4.55
2018-02-09T01:17:20.030Z,-4.49
2018-02-09T01:18:20.613Z,-4.51
2018-02-09T01:19:21.198Z,-4.49
2018-02-09T01:20:21.793Z,-4.56
2018-02-09T01:21:22.377Z,-4.59
2018-02-09T01:22:22.966Z,-4.68
2018-02-09T01:23:23.566Z,-4.56
2018-02-09T01:24:24.168Z,-4.52
2018-02-09T01:25:24.751Z,-4.59
2018-02-09T01:26:25.339Z,-4.58
2018-02-09T01:27:25.961Z,-4.68
2018-02-09T01:28:26.516Z,-4.59
2018-02-09T01:29:27.107Z,-4.70
2018-02-09T01:30:27.700Z,-4.66
2018-02-09T01:31:28.284Z,-4.68
2018-02-09T01:32:28.885Z,-4.70
2018-02-09T01:33:29.483Z,-4.68
2018-02-09T01:34:30.080Z,-4.73
2018-02-09T01:35:30.672Z,-4.68
2018-02-09T01:36:31.273Z,-4.69
2018-02-09T01:37:31.868Z,-4.70
2018-02-09T01:38:32.453Z,-4.66
2018-02-09T01:39:33.037Z,-4.69
2018-02-09T01:40:33.635Z,-4.69
2018-02-09T01:41:34.219Z,-4.69
2018-02-09T01:42:34.819Z,-4.70
2018-02-09T01:43:35.417Z,-4.73
2018-02-09T01:44:36.013Z,-4.69
2018-02-09T01:45:36.600Z,-4.63
2018-02-09T01:46:37.198Z,-4.68
2018-02-09T01:47:37.793Z,-4.66
2018-02-09T01:48:38.387Z,-4.65
2018-02-09T01:49:38.982Z,-4.73
2018-02-09T01:50:39.579Z,-4.68
2018-02-09T01:51:40.173Z,-4.70
2018-02-09T01:52:40.776Z,-4.66
2018-02-09T01:53:41.374Z,-4.74
2018-02-09T01:54:41.965Z,-4.70
2018-02-09T01:55:42.562Z,-4.74
2018-02-09T01:56:43.156Z,-4.73
2018-02-09T01:57:43.743Z,-4.69
2018-02-09T01:58:44.328Z,-4.81
2018-02-09T01:59:44.923Z,-4.77
2018-02-09T02:00:45.518Z,-4.80
2018-02-09T02:01:46.110Z,-4.80
2018-02-09T02:02:46.704Z,-4.80
2018-02-09T02:03:47.296Z,-4.80
2018-02-09T02:04:47.889Z,-4.94
2018-02-09T02:05:48.484Z,-4.94
2018-02-09T02:06:49.069Z,-4.76
2018-02-09T02:07:49.658Z,-4.81
2018-02-09T02:08:50.251Z,-4.88
2018-02-09T02:09:50.849Z,-4.88
2018-02-09T02:10:51.445Z,-4.90
2018-02-09T02:11:52.040Z,-4.76
2018-02-09T02:12:52.626Z,-4.78
2018-02-09T02:13:53.221Z,-4.87
2018-02-09T02:14:53.816Z,-4.95
2018-02-09T02:15:54.418Z,-4.81
2018-02-09T02:16:55.002Z,-4.94
2018-02-09T02:17:55.596Z,-4.80
2018-02-09T02:18:56.187Z,-4.86
2018-02-09T02:19:56.789Z,-4.90
2018-02-09T02:20:57.378Z,-4.92
2018-02-09T02:21:57.980Z,-4.84
2018-02-09T02:22:58.575Z,-4.90
2018-02-09T02:23:59.174Z,-4.86
2018-02-09T02:24:59.769Z,-4.78
2018-02-09T02:26:00.361Z,-4.77
2018-02-09T02:27:00.947Z,-4.80
2018-02-09T02:28:01.540Z,-4.80
2018-02-09T02:29:02.137Z,-4.77
2018-02-09T02:30:02.736Z,-4.78
2018-02-09T02:31:03.315Z,-4.81
2018-02-09T02:32:03.913Z,-4.81
2018-02-09T02:33:04.503Z,-4.81
2018-02-09T02:34:05.091Z,-4.80
2018-02-09T02:35:05.697Z,-4.74
2018-02-09T02:36:06.280Z,-4.81
2018-02-09T02:37:06.885Z,-4.78
2018-02-09T02:38:07.488Z,-4.77
2018-02-09T02:39:08.078Z,-4.80
2018-02-09T02:40:08.676Z,-4.76
2018-02-09T02:41:09.278Z,-4.76
2018-02-09T02:42:09.881Z,-4.59
2018-02-09T02:43:10.488Z,-4.66
2018-02-09T02:44:11.071Z,-4.76
2018-02-09T02:45:11.662Z,-4.70
2018-02-09T02:46:12.255Z,-4.73
2018-02-09T02:47:12.847Z,-4.74
2018-02-09T02:48:13.447Z,-4.63
2018-02-09T02:49:14.035Z,-4.74
2018-02-09T02:50:14.622Z,-4.73
2018-02-09T02:51:15.222Z,-4.63
2018-02-09T02:52:15.820Z,-4.69
2018-02-09T02:53:16.418Z,-4.70
2018-02-09T02:54:17.012Z,-4.69
2018-02-09T02:55:17.603Z,-4.66
2018-02-09T02:56:18.204Z,-4.70
2018-02-09T02:57:18.802Z,-4.73
2018-02-09T02:58:19.398Z,-4.68
2018-02-09T02:59:19.991Z,-4.68
2018-02-09T03:00:20.585Z,-4.69
2018-02-09T03:01:21.223Z,-4.73
2018-02-09T03:02:21.759Z,-4.70
2018-02-09T03:03:22.357Z,-4.66
2018-02-09T03:04:22.950Z,-4.74
2018-02-09T03:05:23.538Z,-4.73
2018-02-09T03:06:24.130Z,-4.68
2018-02-09T03:07:24.723Z,-4.66
2018-02-09T03:08:25.321Z,-4.66
2018-02-09T03:09:25.917Z,-4.73
2018-02-09T03:10:26.515Z,-4.70
2018-02-09T03:11:27.106Z,-4.66
2018-02-09T03:12:27.697Z,-4.74
2018-02-09T03:13:28.283Z,-4.63
2018-02-09T03:14:28.879Z,-4.68
2018-02-09T03:15:29.480Z,-4.69
2018-02-09T03:16:30.074Z,-4.66
2018-02-09T03:17:30.656Z,-4.62
2018-02-09T03:18:31.249Z,-4.81
2018-02-09T03:19:31.847Z,-4.69
2018-02-09T03:20:32.435Z,-4.66
2018-02-09T03:21:33.030Z,-4.74
2018-02-09T03:22:33.624Z,-4.73
2018-02-09T03:23:34.217Z,-4.69
2018-02-09T03:24:34.816Z,-4.66
2018-02-09T03:25:35.412Z,-4.69
2018-02-09T03:26:36.011Z,-4.70
2018-02-09T03:27:36.593Z,-4.70
2018-02-09T03:28:37.179Z,-4.69
2018-02-09T03:29:37.770Z,-4.69
2018-02-09T03:30:38.367Z,-4.70
2018-02-09T03:31:38.958Z,-4.76
2018-02-09T03:32:39.551Z,-4.65
2018-02-09T03:33:40.150Z,-4.63
2018-02-09T03:34:40.738Z,-4.65
2018-02-09T03:35:41.331Z,-4.70
2018-02-09T03:36:41.929Z,-4.73
2018-02-09T03:37:42.526Z,-4.76
2018-02-09T03:38:43.118Z,-4.70
2018-02-09T03:39:43.760Z,-4.68
2018-02-09T03:40:44.305Z,-4.70
2018-02-09T03:41:44.907Z,-4.76
2018-02-09T03:42:45.505Z,-4.73
2018-02-09T03:43:46.107Z,-4.74
2018-02-09T03:44:46.702Z,-4.80
2018-02-09T03:45:47.288Z,-4.76
2018-02-09T03:46:47.886Z,-4.69
2018-02-09T03:47:48.488Z,-4.70
2018-02-09T03:48:49.074Z,-4.80
2018-02-09T03:49:49.662Z,-4.80
2018-02-09T03:50:50.247Z,-4.70
2018-02-09T03:51:50.836Z,-4.73
2018-02-09T03:52:51.430Z,-4.62
2018-02-09T03:53:52.027Z,-4.68
2018-02-09T03:54:52.611Z,-4.66
2018-02-09T03:55:53.209Z,-4.68
2018-02-09T03:56:53.800Z,-4.73
2018-02-09T03:57:54.386Z,-4.69
2018-02-09T03:58:54.971Z,-4.76
2018-02-09T03:59:55.566Z,-4.84
2018-02-09T04:00:56.166Z,-4.76
2018-02-09T04:01:56.762Z,-4.73
2018-02-09T04:02:57.355Z,-4.81
2018-02-09T04:03:57.936Z,-4.81
2018-02-09T04:04:58.521Z,-4.78
2018-02-09T04:05:59.119Z,-4.74
2018-02-09T04:06:59.712Z,-4.77
2018-02-09T04:08:00.305Z,-4.92
2018-02-09T04:09:00.888Z,-4.92
2018-02-09T04:10:01.483Z,-4.92
2018-02-09T04:11:02.071Z,-4.90
2018-02-09T04:12:02.673Z,-4.92
2018-02-09T04:13:03.274Z,-4.97
2018-02-09T04:14:03.873Z,-4.98
2018-02-09T04:15:04.463Z,-4.98
2018-02-09T04:16:05.063Z,-5.01
2018-02-09T04:17:05.665Z,-5.05
2018-02-09T04:18:06.261Z,-5.08
2018-02-09T04:19:06.851Z,-5.04
2018-02-09T04:20:07.448Z,-5.06
2018-02-09T04:21:08.038Z,-5.08
2018-02-09T04:22:08.625Z,-5.13
2018-02-09T04:23:09.213Z,-5.06
2018-02-09T04:24:09.811Z,-5.05
2018-02-09T04:25:10.452Z,-5.18
2018-02-09T04:26:11.055Z,-5.13
2018-02-09T04:27:11.649Z,-5.10
2018-02-09T04:28:12.253Z,-5.13
2018-02-09T04:29:12.855Z,-5.13
2018-02-09T04:30:13.443Z,-5.26
2018-02-09T04:31:14.032Z,-5.24
2018-02-09T04:32:14.626Z,-5.12
2018-02-09T04:33:15.216Z,-5.26
2018-02-09T04:34:15.808Z,-5.13
2018-02-09T04:35:16.404Z,-5.18
2018-02-09T04:36:17.000Z,-5.26
2018-02-09T04:37:17.604Z,-5.20
2018-02-09T04:38:18.201Z,-5.27
2018-02-09T04:39:18.798Z,-5.35
2018-02-09T04:40:19.393Z,-5.34
2018-02-09T04:41:19.988Z,-5.35
2018-02-09T04:42:20.588Z,-5.39
2018-02-09T04:43:21.167Z,-5.41
2018-02-09T04:44:21.761Z,-5.45
2018-02-09T04:45:22.347Z,-5.44
2018-02-09T04:46:22.947Z,-5.46
2018-02-09T04:47:23.542Z,-5.46
2018-02-09T04:48:24.141Z,-5.44
2018-02-09T04:49:24.734Z,-5.44
2018-02-09T04:50:25.320Z,-5.42
2018-02-09T04:51:25.904Z,-5.35
2018-02-09T04:52:26.505Z,-5.34
2018-02-09T04:53:27.093Z,-5.35
2018-02-09T04:54:27.686Z,-5.39
2018-02-09T04:55:28.283Z,-5.45
2018-02-09T04:56:28.877Z,-5.36
2018-02-09T04:57:29.469Z,-5.31
2018-02-09T04:58:30.066Z,-5.32
2018-02-09T04:59:30.668Z,-5.38
2018-02-09T05:00:31.271Z,-5.41
2018-02-09T05:01:31.851Z,-5.38
2018-02-09T05:02:32.459Z,-5.46
2018-02-09T05:03:33.040Z,-5.49
2018-02-09T05:04:33.635Z,-5.49
2018-02-09T05:05:34.224Z,-5.50
2018-02-09T05:06:34.824Z,-5.46
2018-02-09T05:07:35.421Z,-5.45
2018-02-09T05:08:36.005Z,-5.52
2018-02-09T05:09:36.630Z,-5.44
2018-02-09T05:10:37.224Z,-5.50
2018-02-09T05:11:37.810Z,-5.49
2018-02-09T05:12:38.397Z,-5.46
2018-02-09T05:13:38.988Z,-5.53
2018-02-09T05:14:39.582Z,-5.55
2018-02-09T05:15:40.177Z,-5.45
2018-02-09T05:16:40.769Z,-5.45
2018-02-09T05:17:41.363Z,-5.46
2018-02-09T05:18:41.964Z,-5.50
2018-02-09T05:19:42.561Z,-5.52
2018-02-09T05:20:43.156Z,-5.44
2018-02-09T05:21:43.748Z,-5.45
2018-02-09T05:22:44.346Z,-5.50
2018-02-09T05:23:44.935Z,-5.53
2018-02-09T05:24:45.522Z,-5.46
2018-02-09T05:25:46.123Z,-5.49
2018-02-09T05:26:46.725Z,-5.50
2018-02-09T05:27:47.327Z,-5.49
2018-02-09T05:28:47.918Z,-5.49
2018-02-09T05:29:48.516Z,-5.41
2018-02-09T05:30:49.112Z,-5.52
2018-02-09T05:31:49.701Z,-5.57
2018-02-09T05:32:50.302Z,-5.62
2018-02-09T05:33:50.904Z,-5.63
2018-02-09T05:34:51.486Z,-5.71
2018-02-09T05:35:52.083Z,-5.70
2018-02-09T05:36:52.680Z,-5.62
2018-02-09T05:37:53.273Z,-5.63
2018-02-09T05:38:53.873Z,-5.56
2018-02-09T05:39:54.469Z,-5.60
2018-02-09T05:40:55.057Z,-5.62
2018-02-09T05:41:55.645Z,-5.63
2018-02-09T05:42:56.242Z,-5.62
2018-02-09T05:43:56.845Z,-5.67
2018-02-09T05:44:57.430Z,-5.63
2018-02-09T05:45:58.028Z,-5.67
2018-02-09T05:46:58.614Z,-5.67
2018-02-09T05:47:59.203Z,-5.57
2018-02-09T05:48:59.795Z,-5.53
2018-02-09T05:50:00.394Z,-5.53
2018-02-09T05:51:00.990Z,-5.45
2018-02-09T05:52:01.581Z,-5.50
2018-02-09T05:53:02.173Z,-5.55
2018-02-09T05:54:02.771Z,-5.46
2018-02-09T05:55:03.368Z,-5.50
2018-02-09T05:56:03.963Z,-5.49
2018-02-09T05:57:04.561Z,-5.50
2018-02-09T05:58:05.152Z,-5.46
2018-02-09T05:59:05.737Z,-5.46
2018-02-09T06:00:06.331Z,-5.50
2018-02-09T06:01:06.931Z,-5.32
2018-02-09T06:02:07.520Z,-5.36
2018-02-09T06:03:08.106Z,-5.35
2018-02-09T06:04:08.698Z,-5.28
2018-02-09T06:05:09.295Z,-5.44
2018-02-09T06:06:09.888Z,-5.39
2018-02-09T06:07:10.489Z,-5.27
2018-02-09T06:08:11.071Z,-5.32
2018-02-09T06:09:11.662Z,-5.35
2018-02-09T06:10:12.258Z,-5.35
2018-02-09T06:11:12.847Z,-5.34
2018-02-09T06:12:13.443Z,-5.35
2018-02-09T06:13:14.025Z,-5.36
2018-02-09T06:14:14.617Z,-5.31
2018-02-09T06:15:15.211Z,-5.28
2018-02-09T06:16:15.810Z,-5.28
2018-02-09T06:17:16.461Z,-5.38
2018-02-09T06:18:17.011Z,-5.31
2018-02-09T06:19:17.603Z,-5.24
2018-02-09T06:20:18.203Z,-5.26
2018-02-09T06:21:18.793Z,-5.26
2018-02-09T06:22:19.395Z,-5.26
2018-02-09T06:23:19.990Z,-5.27
2018-02-09T06:24:20.584Z,-5.27
2018-02-09T06:25:21.167Z,-5.26
2018-02-09T06:26:21.759Z,-5.24
2018-02-09T06:27:22.351Z,-5.27
2018-02-09T06:28:22.945Z,-5.31
2018-02-09T06:29:23.541Z,-5.20
2018-02-09T06:30:24.124Z,-5.32
2018-02-09T06:31:24.716Z,-5.28
2018-02-09T06:32:25.316Z,-5.20
2018-02-09T06:33:25.909Z,-5.24
2018-02-09T06:34:26.501Z,-5.32
2018-02-09T06:35:27.091Z,-5.21
2018-02-09T06:36:27.695Z,-5.17
2018-02-09T06:37:28.284Z,-5.18
2018-02-09T06:38:28.881Z,-5.20
2018-02-09T06:39:29.474Z,-5.16
2018-02-09T06:40:30.060Z,-5.21
2018-02-09T06:41:30.664Z,-5.26
2018-02-09T06:42:31.260Z,-5.28
2018-02-09T06:43:31.858Z,-5.24
2018-02-09T06:44:32.458Z,-5.26
2018-02-09T06:45:33.061Z,-5.21
2018-02-09T06:46:33.648Z,-5.20
2018-02-09T06:47:34.250Z,-5.26
2018-02-09T06:48:34.842Z,-5.27
2018-02-09T06:49:35.437Z,-5.18
2018-02-09T06:50:36.037Z,-5.26
2018-02-09T06:51:36.630Z,-5.13
2018-02-09T06:52:37.221Z,-5.17
2018-02-09T06:53:37.830Z,-5.23
2018-02-09T06:54:38.428Z,-5.26
2018-02-09T06:55:39.014Z,-5.24
2018-02-09T06:56:39.614Z,-5.27
2018-02-09T06:57:40.217Z,-5.17
2018-02-09T06:58:40.812Z,-5.24
2018-02-09T06:59:41.409Z,-5.13
2018-02-09T07:00:42.005Z,-5.17
2018-02-09T07:01:42.602Z,-5.12
2018-02-09T07:02:43.201Z,-5.10
2018-02-09T07:03:43.796Z,-5.18
2018-02-09T07:04:44.394Z,-5.13
2018-02-09T07:05:44.980Z,-5.20
2018-02-09T07:06:45.571Z,-5.08
2018-02-09T07:07:46.173Z,-5.05
2018-02-09T07:08:46.790Z,-5.06
2018-02-09T07:09:47.379Z,-5.06
2018-02-09T07:10:47.975Z,-5.10
2018-02-09T07:11:48.575Z,-5.04
2018-02-09T07:12:49.181Z,-5.04
2018-02-09T07:13:49.778Z,-4.98
2018-02-09T07:14:50.377Z,-4.95
2018-02-09T07:15:50.976Z,-4.98
2018-02-09T07:16:51.574Z,-4.98
2018-02-09T07:17:52.175Z,-4.97
2018-02-09T07:18:52.781Z,-4.90
2018-02-09T07:19:53.395Z,-4.94
2018-02-09T07:20:54.002Z,-4.84
2018-02-09T07:21:54.590Z,-4.90
2018-02-09T07:22:55.179Z,-4.92
2018-02-09T07:23:55.776Z,-4.81
2018-02-09T07:24:56.381Z,-4.74
2018-02-09T07:25:56.974Z,-4.73
2018-02-09T07:26:57.573Z,-4.70
2018-02-09T07:27:58.170Z,-4.63
2018-02-09T07:28:58.770Z,-4.59
2018-02-09T07:29:59.372Z,-4.58
2018-02-09T07:30:59.985Z,-4.51
2018-02-09T07:32:00.584Z,-4.31
2018-02-09T07:33:01.184Z,-4.20
2018-02-09T07:34:01.804Z,-4.19
2018-02-09T07:35:02.408Z,-3.98
2018-02-09T07:36:03.006Z,-3.65
2018-02-09T07:37:03.606Z,-3.47
2018-02-09T07:38:04.205Z,-3.23
2018-02-09T07:39:04.801Z,-2.91
2018-02-09T07:40:05.414Z,-2.66
2018-02-09T07:41:06.012Z,-2.44
2018-02-09T07:42:06.613Z,-2.33
2018-02-09T07:43:07.222Z,-2.28
2018-02-09T07:44:07.824Z,-2.07
2018-02-09T07:45:08.424Z,-2.11
2018-02-09T07:46:09.033Z,-1.97
2018-02-09T07:47:09.663Z,-1.86
2018-02-09T07:48:10.245Z,-1.79
2018-02-09T07:49:10.852Z,-1.70
2018-02-09T07:50:11.461Z,-1.61
2018-02-09T07:51:12.064Z,-1.39
2018-02-09T07:52:12.676Z,-1.19
2018-02-09T07:53:13.278Z,-1.04
2018-02-09T07:54:13.879Z,-0.90
2018-02-09T07:55:14.484Z,-0.60
2018-02-09T07:56:15.083Z,-0.53
2018-02-09T07:57:15.687Z,-0.40
2018-02-09T07:58:16.289Z,-0.17
2018-02-09T07:59:16.907Z,-0.04
2018-02-09T08:00:17.558Z,0.15
2018-02-09T08:01:18.168Z,0.29
2018-02-09T08:02:18.772Z,0.09
2018-02-09T08:03:19.382Z,-0.07
2018-02-09T08:04:19.974Z,-0.09
2018-02-09T08:05:20.583Z,-0.34
2018-02-09T08:06:21.191Z,-0.45
2018-02-09T08:07:21.803Z,-0.48
2018-02-09T08:08:22.418Z,-0.56
2018-02-09T08:09:23.015Z,-0.56
2018-02-09T08:10:23.621Z,-0.45
2018-02-09T08:11:24.220Z,-0.16
2018-02-09T08:12:24.825Z,0.12
2018-02-09T08:13:25.432Z,0.48
2018-02-09T08:14:26.035Z,0.60
2018-02-09T08:15:26.643Z,0.66
2018-02-09T08:16:27.242Z,0.73
2018-02-09T08:17:27.847Z,0.70
2018-02-09T08:18:28.461Z,0.70
2018-02-09T08:19:29.064Z,0.59
2018-02-09T08:20:29.668Z,0.51
2018-02-09T08:21:30.281Z,0.60
2018-02-09T08:22:30.893Z,0.43
2018-02-09T08:23:31.503Z,0.50
2018-02-09T08:24:32.097Z,0.34
2018-02-09T08:25:32.694Z,0.38
2018-02-09T08:26:33.298Z,0.43
2018-02-09T08:27:33.910Z,0.51
2018-02-09T08:28:34.512Z,0.37
2018-02-09T08:29:35.122Z,0.48
2018-02-09T08:30:35.726Z,0.50
2018-02-09T08:31:36.325Z,0.73
2018-02-09T08:32:36.930Z,0.93
2018-02-09T08:33:37.529Z,1.03
2018-02-09T08:34:38.127Z,1.14
2018-02-09T08:35:38.750Z,1.06
2018-02-09T08:36:39.372Z,0.82
2018-02-09T08:37:39.968Z,0.84
2018-02-09T08:38:40.581Z,0.85
2018-02-09T08:39:41.192Z,0.82
2018-02-09T08:40:41.791Z,0.78
2018-02-09T08:41:42.397Z,0.88
2018-02-09T08:42:43.011Z,0.96
2018-02-09T08:43:43.619Z,0.95
2018-02-09T08:44:44.225Z,0.91
2018-02-09T08:45:44.821Z,0.91
2018-02-09T08:46:45.422Z,0.88
2018-02-09T08:47:46.028Z,0.95
2018-02-09T08:48:46.637Z,0.93
2018-02-09T08:49:47.255Z,0.91
2018-02-09T08:50:47.846Z,0.95
2018-02-09T08:51:48.518Z,0.91
2018-02-09T08:52:49.099Z,0.84
2018-02-09T08:53:49.705Z,0.96
2018-02-09T08:54:50.310Z,0.99
2018-02-09T08:55:50.921Z,1.02
2018-02-09T08:56:51.513Z,0.80
2018-02-09T08:57:52.120Z,0.75
2018-02-09T08:58:52.735Z,0.72
2018-02-09T08:59:53.340Z,0.77
2018-02-09T09:00:53.948Z,0.96
2018-02-09T09:01:54.547Z,0.91
2018-02-09T09:02:55.154Z,0.99
2018-02-09T09:03:55.750Z,1.03
2018-02-09T09:04:56.351Z,1.14
2018-02-09T09:05:56.966Z,1.14
2018-02-09T09:06:57.584Z,1.16
2018-02-09T09:07:58.196Z,1.27
2018-02-09T09:08:58.804Z,1.46
2018-02-09T09:09:59.414Z,1.46
2018-02-09T09:11:00.027Z,1.36
2018-02-09T09:12:00.617Z,1.41
2018-02-09T09:13:01.221Z,1.56
2018-02-09T09:14:01.830Z,1.46
2018-02-09T09:15:02.436Z,1.66
2018-02-09T09:16:03.038Z,1.80
2018-02-09T09:17:03.650Z,1.81
2018-02-09T09:18:04.259Z,1.88
2018-02-09T09:19:04.865Z,2.00
2018-02-09T09:20:05.498Z,2.28
2018-02-09T09:21:06.085Z,2.36
2018-02-09T09:22:06.708Z,2.39
2018-02-09T09:23:07.315Z,2.53
2018-02-09T09:24:07.911Z,2.54
2018-02-09T09:25:08.512Z,2.54
2018-02-09T09:26:09.122Z,2.89
2018-02-09T09:27:09.742Z,2.94
2018-02-09T09:28:10.372Z,3.01
2018-02-09T09:29:10.956Z,2.90
2018-02-09T09:30:11.563Z,2.86
2018-02-09T09:31:12.175Z,2.89
2018-02-09T09:32:12.775Z,2.83
2018-02-09T09:33:13.371Z,2.86
2018-02-09T09:34:13.981Z,2.86
2018-02-09T09:35:14.585Z,2.83
2018-02-09T09:36:15.195Z,2.84
2018-02-09T09:37:15.816Z,2.97
2018-02-09T09:38:16.426Z,3.33
2018-02-09T09:39:17.035Z,3.52
2018-02-09T09:40:17.651Z,3.73
2018-02-09T09:41:18.251Z,3.93
2018-02-09T09:42:18.872Z,4.17
2018-02-09T09:43:19.491Z,4.38
2018-02-09T09:44:20.130Z,4.50
2018-02-09T09:45:20.731Z,4.70
2018-02-09T09:46:21.335Z,4.83
2018-02-09T09:47:21.947Z,4.90
2018-02-09T09:48:22.557Z,5.24
2018-02-09T09:49:23.172Z,5.65
2018-02-09T09:50:23.800Z,5.73
2018-02-09T09:51:24.403Z,5.42
2018-02-09T09:52:25.027Z,5.37
2018-02-09T09:53:25.629Z,5.54
2018-02-09T09:54:26.238Z,5.63
2018-02-09T09:55:26.850Z,5.61
2018-02-09T09:56:27.472Z,5.78
2018-02-09T09:57:28.112Z,6.04
2018-02-09T09:58:28.694Z,5.96
2018-02-09T09:59:29.296Z,6.12
2018-02-09T10:00:29.923Z,6.39
2018-02-09T10:01:30.529Z,6.46
2018-02-09T10:02:31.150Z,6.67
2018-02-09T10:03:31.764Z,6.97
2018-02-09T10:04:32.373Z,6.91
2018-02-09T10:05:32.991Z,6.67
2018-02-09T10:06:33.602Z,6.68
2018-02-09T10:07:34.283Z,6.46
2018-02-09T10:08:34.893Z,6.55
2018-02-09T10:09:35.505Z,6.63
2018-02-09T10:10:36.130Z,6.88
2018-02-09T10:11:36.746Z,6.97
2018-02-09T10:12:37.368Z,7.12
2018-02-09T10:13:37.971Z,7.33
2018-02-09T10:14:38.574Z,7.51
2018-02-09T10:15:39.181Z,7.92
2018-02-09T10:16:39.794Z,8.01
2018-02-09T10:17:40.399Z,8.16
2018-02-09T10:18:41.012Z,8.09
2018-02-09T10:19:41.620Z,8.27
2018-02-09T10:20:42.230Z,8.28
2018-02-09T10:21:42.841Z,8.10
2018-02-09T10:22:43.447Z,8.12
2018-02-09T10:23:44.066Z,8.02
2018-02-09T10:24:44.715Z,8.06
2018-02-09T10:25:45.328Z,8.27
2018-02-09T10:26:45.944Z,8.56
2018-02-09T10:27:46.556Z,8.48
2018-02-09T10:28:47.166Z,8.48
2018-02-09T10:29:47.781Z,8.48
2018-02-09T10:30:48.385Z,8.81
2018-02-09T10:31:48.996Z,9.01
2018-02-09T10:32:49.611Z,9.25
2018-02-09T10:33:50.214Z,9.01
2018-02-09T10:34:50.829Z,9.12
2018-02-09T10:35:51.449Z,9.32
2018-02-09T10:36:52.048Z,9.48
2018-02-09T10:37:52.670Z,9.68
2018-02-09T10:38:53.278Z,9.53
2018-02-09T10:39:53.892Z,9.17
2018-02-09T10:40:54.494Z,8.91
2018-02-09T10:41:55.108Z,8.95
2018-02-09T10:42:55.721Z,8.93
2018-02-09T10:43:56.337Z,8.88
2018-02-09T10:44:56.944Z,8.46
2018-02-09T10:45:57.546Z,8.49
2018-02-09T10:46:58.164Z,8.06
2018-02-09T10:47:58.785Z,8.12
2018-02-09T10:48:59.404Z,8.15
2018-02-09T10:50:00.020Z,8.34
2018-02-09T10:51:00.628Z,8.70
2018-02-09T10:52:01.235Z,9.00
2018-02-09T10:53:01.856Z,8.86
2018-02-09T10:54:02.460Z,8.23
2018-02-09T10:55:03.072Z,8.23
2018-02-09T10:56:03.684Z,8.23
2018-02-09T10:57:04.292Z,8.28
2018-02-09T10:58:04.906Z,8.35
2018-02-09T10:59:05.518Z,8.49
2018-02-09T11:00:06.129Z,8.58
2018-02-09T11:01:06.748Z,8.35
2018-02-09T11:02:07.360Z,8.45
2018-02-09T11:03:07.973Z,8.59
2018-02-09T11:04:08.577Z,8.73
2018-02-09T11:05:09.179Z,8.84
2018-02-09T11:06:09.804Z,8.59
2018-02-09T11:07:10.419Z,8.64
2018-02-09T11:08:11.034Z,8.88
2018-02-09T11:09:11.633Z,9.06
2018-02-09T11:10:12.250Z,9.41
2018-02-09T11:11:12.870Z,9.17
2018-02-09T11:12:13.530Z,9.26
2018-02-09T11:13:14.089Z,9.48
2018-02-09T11:14:14.701Z,9.68
2018-02-09T11:15:15.309Z,9.48
2018-02-09T11:16:15.928Z,9.51
2018-02-09T11:17:16.549Z,9.58
2018-02-09T11:18:17.165Z,9.22
2018-02-09T11:19:17.782Z,9.01
2018-02-09T11:20:18.387Z,8.86
2018-02-09T11:21:19.050Z,8.98
2018-02-09T11:22:19.618Z,9.19
2018-02-09T11:23:20.246Z,9.41
2018-02-09T11:24:20.845Z,9.36
2018-02-09T11:25:21.458Z,9.38
2018-02-09T11:26:22.069Z,9.56
2018-02-09T11:27:22.685Z,8.96
2018-02-09T11:28:23.297Z,8.95
2018-02-09T11:29:23.911Z,8.58
2018-02-09T11:30:24.522Z,8.55
2018-02-09T11:31:25.123Z,8.45
2018-02-09T11:32:25.733Z,8.82
2018-02-09T11:33:26.349Z,9.10
2018-02-09T11:34:26.960Z,9.59
2018-02-09T11:35:27.573Z,9.86
2018-02-09T11:36:28.184Z,9.65
2018-02-09T11:37:28.787Z,9.63
2018-02-09T11:38:29.402Z,9.66
2018-02-09T11:39:30.021Z,9.81
2018-02-09T11:40:30.626Z,9.96
2018-02-09T11:41:31.227Z,10.37
2018-02-09T11:42:31.840Z,10.49
2018-02-09T11:43:32.438Z,10.63
2018-02-09T11:44:33.052Z,10.82
2018-02-09T11:45:33.674Z,10.56
2018-02-09T11:46:34.291Z,10.49
2018-02-09T11:47:34.903Z,10.57
2018-02-09T11:48:35.520Z,10.34
2018-02-09T11:49:36.143Z,10.29
2018-02-09T11:50:36.757Z,10.02
2018-02-09T11:51:37.360Z,10.20
2018-02-09T11:52:37.970Z,10.37
2018-02-09T11:53:38.616Z,10.34
2018-02-09T11:54:39.212Z,10.34
2018-02-09T11:55:39.816Z,10.51
2018-02-09T11:56:40.436Z,10.39
2018-02-09T11:57:41.049Z,10.38
2018-02-09T11:58:41.668Z,10.31
2018-02-09T11:59:42.286Z,10.44
2018-02-09T12:00:42.906Z,10.74
2018-02-09T12:01:43.525Z,10.47
2018-02-09T12:02:44.138Z,10.41
2018-02-09T12:03:44.746Z,10.23
2018-02-09T12:04:45.348Z,10.08
2018-02-09T12:05:45.963Z,10.19
2018-02-09T12:06:46.579Z,10.20
2018-02-09T12:07:47.201Z,10.53
2018-02-09T12:08:47.812Z,10.83
2018-02-09T12:09:48.436Z,11.03
2018-02-09T12:10:49.062Z,11.29
2018-02-09T12:11:49.683Z,11.45
2018-02-09T12:12:50.301Z,11.54
2018-02-09T12:13:50.933Z,11.24
2018-02-09T12:14:51.531Z,11.37
2018-02-09T12:15:52.153Z,11.36
2018-02-09T12:16:52.807Z,11.52
2018-02-09T12:17:53.448Z,11.51
2018-02-09T12:18:54.030Z,11.83
2018-02-09T12:19:54.643Z,11.50
2018-02-09T12:20:55.260Z,11.55
2018-02-09T12:21:55.874Z,11.51
2018-02-09T12:22:56.481Z,11.70
2018-02-09T12:23:57.093Z,11.85
2018-02-09T12:24:57.715Z,11.95
2018-02-09T12:25:58.335Z,11.87
2018-02-09T12:26:58.940Z,11.63
2018-02-09T12:27:59.555Z,11.67
2018-02-09T12:29:00.174Z,11.58
2018-02-09T12:30:00.794Z,11.67
2018-02-09T12:31:01.449Z,11.47
2018-02-09T12:32:02.067Z,11.51
2018-02-09T12:33:02.664Z,11.70
2018-02-09T12:34:03.286Z,11.62
2018-02-09T12:35:03.936Z,11.54
2018-02-09T12:36:04.512Z,11.47
2018-02-09T12:37:05.137Z,10.99
2018-02-09T12:38:05.810Z,10.37
2018-02-09T12:39:06.356Z,10.19
2018-02-09T12:40:06.977Z,9.94
2018-02-09T12:41:07.596Z,9.99
2018-02-09T12:42:08.210Z,10.17
2018-02-09T12:43:08.824Z,10.32
2018-02-09T12:44:09.437Z,10.34
2018-02-09T12:45:10.054Z,10.34
2018-02-09T12:46:10.677Z,10.16
2018-02-09T12:47:11.284Z,9.98
2018-02-09T12:48:11.929Z,9.81
2018-02-09T12:49:12.539Z,9.80
2018-02-09T12:50:13.167Z,9.91
2018-02-09T12:51:13.774Z,10.23
2018-02-09T12:52:14.385Z,10.16
2018-02-09T12:53:14.997Z,10.09
2018-02-09T12:54:15.613Z,9.77
2018-02-09T12:55:16.278Z,9.51
2018-02-09T12:56:16.950Z,9.28
2018-02-09T12:57:17.558Z,9.26
2018-02-09T12:58:18.178Z,9.47
2018-02-09T12:59:18.808Z,9.59
2018-02-09T13:00:19.431Z,9.38
2018-02-09T13:01:20.064Z,9.19
2018-02-09T13:02:20.698Z,8.82
2018-02-09T13:03:21.292Z,8.30
2018-02-09T13:04:21.965Z,8.30
2018-02-09T13:05:22.624Z,8.13
2018-02-09T13:06:23.208Z,7.98
2018-02-09T13:07:23.858Z,7.81
2018-02-09T13:08:24.463Z,7.72
2018-02-09T13:09:25.062Z,7.66